Terminal Aerodrome Forecast
Issued by NWS Missoula, MT

Home | Current Version | Previous Version | Text Only | Print | Product List | Glossary On
Versions: 1 2 3 4 5 6 7 8 9 10 11 12 13 14 15 16 17 18
019
FTUS45 KMSO 111720
TAFBTM
TAF
KBTM 111720Z 1118/1218 00000KT P6SM SCT150
     FM120300 VRB03KT P6SM VCSH SCT050 OVC100
     FM120600 35006KT 5SM -SN BR BKN030 OVC050
     FM121200 VRB03KT P6SM VCSH BKN050 OVC100=

USA.gov is the U.S. government's official web portal to all federal, state and local government web resources and services.